Time;durP1;ratioP1;P1;durP2;ratioP2;P2;SDS_P1;SDS_P2;PMS_P1;PMS_P2;Temp;Humidity;BMP_temperature;BMP_pressure;BME280_temperature;BME280_humidity;BME280_pressure;Samples;Min_cycle;Max_cycle;Signal;HPM_P1;HPM_P2
2023/04/27 00:01:11;;;;;;;;;;;3.80;99.90;;;;;;5050577;28;19983;-53
2023/04/27 00:03:38;;;;;;;;;;;3.80;99.90;;;;;;5046019;28;19938;-51
2023/04/27 00:06:05;;;;;;;;;;;3.70;99.90;;;;;;5047850;28;19964;-53
2023/04/27 00:08:31;;;;;;;;;;;3.70;99.90;;;;;;5048432;28;20370;-52
2023/04/27 00:10:58;;;;;;;;;;;3.70;99.90;;;;;;5048090;28;19955;-50
2023/04/27 00:13:25;;;;;;;;;;;3.70;99.90;;;;;;5046989;28;20027;-48
2023/04/27 00:15:52;;;;;;;;;;;3.60;99.90;;;;;;5051256;28;19937;-49
2023/04/27 00:18:20;;;;;;;;;;;3.60;99.90;;;;;;5049931;28;19979;-49
2023/04/27 00:20:47;;;;;;;;;;;3.50;99.90;;;;;;5041445;28;20304;-49
2023/04/27 00:23:13;;;;;;;;;;;3.50;99.90;;;;;;5062453;28;20024;-52
2023/04/27 00:25:40;;;;;;;;;;;3.50;99.90;;;;;;5044143;28;20043;-50
2023/04/27 00:28:06;;;;;;;;;;;3.50;99.90;;;;;;5048579;28;20369;-52
2023/04/27 00:30:34;;;;;;;;;;;3.40;99.90;;;;;;5043166;28;20326;-45
2023/04/27 00:33:01;;;;;;;;;;;3.40;99.90;;;;;;5050252;28;19935;-53
2023/04/27 00:35:29;;;;;;;;;;;3.40;99.90;;;;;;5049329;28;19936;-48
2023/04/27 00:37:55;;;;;;;;;;;3.40;99.90;;;;;;5050614;28;19928;-48
2023/04/27 00:40:22;;;;;;;;;;;3.30;99.90;;;;;;5042118;28;19948;-51
2023/04/27 00:42:49;;;;;;;;;;;3.30;99.90;;;;;;5057822;28;20006;-53
2023/04/27 00:45:15;;;;;;;;;;;3.30;99.90;;;;;;5058938;28;20386;-46
2023/04/27 00:47:42;;;;;;;;;;;3.20;99.90;;;;;;5057867;28;19983;-49
2023/04/27 00:50:10;;;;;;;;;;;3.20;99.90;;;;;;5057786;28;19983;-47
2023/04/27 00:52:39;;;;;;;;;;;3.20;99.90;;;;;;5056412;28;20019;-52
2023/04/27 00:55:06;;;;;;;;;;;3.20;99.90;;;;;;5055436;28;19951;-50
2023/04/27 00:57:33;;;;;;;;;;;3.10;99.90;;;;;;5057817;28;19970;-52
2023/04/27 00:59:59;;;;;;;;;;;3.10;99.90;;;;;;5056262;28;20004;-51
2023/04/27 01:02:26;;;;;;;;;;;3.10;99.90;;;;;;5058307;28;20017;-52
2023/04/27 01:04:53;;;;;;;;;;;3.10;99.90;;;;;;5054954;28;20418;-51
2023/04/27 01:07:19;;;;;;;;;;;3.00;99.90;;;;;;5070922;28;19942;-49
2023/04/27 01:09:47;;;;;;;;;;;3.00;99.90;;;;;;5056953;28;20389;-51
2023/04/27 01:12:14;;;;;;;;;;;3.00;99.90;;;;;;5058846;28;19959;-47
2023/04/27 01:14:41;;;;;;;;;;;2.90;99.90;;;;;;5056855;28;19972;-50
2023/04/27 01:17:07;;;;;;;;;;;2.90;99.90;;;;;;5056722;28;19943;-48
2023/04/27 01:19:34;;;;;;;;;;;2.90;99.90;;;;;;5057067;28;20053;-50
2023/04/27 01:22:02;;;;;;;;;;;2.90;99.90;;;;;;5060218;28;20016;-47
2023/04/27 01:24:30;;;;;;;;;;;2.80;99.90;;;;;;5055548;28;20046;-50
2023/04/27 01:26:57;;;;;;;;;;;2.80;99.90;;;;;;5056302;28;20373;-55
2023/04/27 01:29:24;;;;;;;;;;;2.90;99.90;;;;;;5049327;28;19936;-48
2023/04/27 01:31:51;;;;;;;;;;;2.80;99.90;;;;;;5068829;28;19981;-50
2023/04/27 01:34:17;;;;;;;;;;;2.70;99.90;;;;;;5057455;28;20433;-48
2023/04/27 01:36:44;;;;;;;;;;;2.80;99.90;;;;;;5056657;28;20402;-46
2023/04/27 01:39:10;;;;;;;;;;;2.70;99.90;;;;;;5055811;28;20337;-50
2023/04/27 01:41:38;;;;;;;;;;;2.70;99.90;;;;;;5047104;28;20370;-48
2023/04/27 01:44:05;;;;;;;;;;;2.70;99.90;;;;;;5057693;28;19920;-51
2023/04/27 01:46:32;;;;;;;;;;;2.60;99.90;;;;;;5056992;28;20313;-50
2023/04/27 01:48:58;;;;;;;;;;;2.60;99.90;;;;;;5054328;28;20019;-48
2023/04/27 01:51:26;;;;;;;;;;;2.60;99.90;;;;;;5044348;28;20294;-43
2023/04/27 01:53:53;;;;;;;;;;;2.60;99.90;;;;;;5051157;28;19945;-49
2023/04/27 01:56:19;;;;;;;;;;;2.50;99.90;;;;;;5051527;28;19997;-48
2023/04/27 01:58:47;;;;;;;;;;;2.50;99.90;;;;;;5052046;28;19968;-50
2023/04/27 02:01:14;;;;;;;;;;;2.50;99.90;;;;;;5057186;28;19955;-49
2023/04/27 02:03:41;;;;;;;;;;;2.50;99.90;;;;;;5059088;28;19931;-52
2023/04/27 02:06:08;;;;;;;;;;;2.50;99.90;;;;;;5053995;28;19936;-50
2023/04/27 02:08:34;;;;;;;;;;;2.40;99.90;;;;;;5048350;28;19945;-41
2023/04/27 02:11:01;;;;;;;;;;;2.40;99.90;;;;;;5052853;28;20018;-52
2023/04/27 02:13:28;;;;;;;;;;;2.40;99.90;;;;;;5052745;28;19939;-53
2023/04/27 02:15:56;;;;;;;;;;;2.50;99.90;;;;;;5052996;28;19995;-50
2023/04/27 02:18:23;;;;;;;;;;;2.40;99.90;;;;;;5054038;28;20417;-55
2023/04/27 02:20:49;;;;;;;;;;;2.40;99.90;;;;;;5046784;28;19921;-51
2023/04/27 02:23:16;;;;;;;;;;;2.40;99.90;;;;;;5053402;28;19936;-50
2023/04/27 02:25:45;;;;;;;;;;;2.40;99.90;;;;;;5055409;28;20408;-47
2023/04/27 02:28:12;;;;;;;;;;;2.30;99.90;;;;;;5043630;28;20315;-51
2023/04/27 02:30:38;;;;;;;;;;;2.30;99.90;;;;;;5051906;28;20501;-49
2023/04/27 02:33:06;;;;;;;;;;;2.30;99.90;;;;;;5052754;28;19939;-51
2023/04/27 02:35:33;;;;;;;;;;;2.30;99.90;;;;;;5044159;28;19985;-48
2023/04/27 02:38:00;;;;;;;;;;;2.30;99.90;;;;;;5051055;28;20014;-52
2023/04/27 02:40:26;;;;;;;;;;;2.30;99.90;;;;;;5051980;28;19961;-51
2023/04/27 02:42:53;;;;;;;;;;;2.30;99.90;;;;;;5052636;28;19955;-48
2023/04/27 02:45:19;;;;;;;;;;;2.20;99.90;;;;;;5061157;28;20018;-53
2023/04/27 02:47:46;;;;;;;;;;;2.20;99.90;;;;;;5051528;28;20022;-52
2023/04/27 02:50:14;;;;;;;;;;;2.20;99.90;;;;;;5053918;28;19963;-49
2023/04/27 02:52:41;;;;;;;;;;;2.20;99.90;;;;;;5051201;28;19936;-50
2023/04/27 02:55:08;;;;;;;;;;;2.20;99.90;;;;;;5052444;28;20024;-48
2023/04/27 02:57:34;;;;;;;;;;;2.20;99.90;;;;;;5052854;28;20012;-51
2023/04/27 03:00:01;;;;;;;;;;;2.20;99.90;;;;;;5056181;28;20043;-49
2023/04/27 03:02:30;;;;;;;;;;;2.20;99.90;;;;;;5051161;28;19988;-51
2023/04/27 03:04:58;;;;;;;;;;;2.20;99.90;;;;;;5072602;28;19938;-56
2023/04/27 03:07:26;;;;;;;;;;;2.30;99.90;;;;;;5053387;28;19986;-48
2023/04/27 03:09:52;;;;;;;;;;;2.20;99.90;;;;;;5053192;28;19937;-45
2023/04/27 03:12:19;;;;;;;;;;;2.20;99.90;;;;;;5051512;28;20001;-50
2023/04/27 03:14:46;;;;;;;;;;;2.20;99.90;;;;;;5051639;28;19934;-50
2023/04/27 03:17:12;;;;;;;;;;;2.20;99.90;;;;;;5053874;28;19933;-50
2023/04/27 03:19:40;;;;;;;;;;;2.20;99.90;;;;;;5059329;28;20467;-48
2023/04/27 03:22:06;;;;;;;;;;;2.10;99.90;;;;;;5050820;28;19943;-48
2023/04/27 03:24:34;;;;;;;;;;;2.10;99.90;;;;;;5051053;28;19999;-51
2023/04/27 03:27:02;;;;;;;;;;;2.10;99.90;;;;;;5051666;28;19968;-48
2023/04/27 03:29:28;;;;;;;;;;;2.10;99.90;;;;;;5053219;28;20165;-44
2023/04/27 03:31:56;;;;;;;;;;;2.10;99.90;;;;;;5052777;28;19936;-50
2023/04/27 03:34:23;;;;;;;;;;;2.10;99.90;;;;;;5064525;28;19940;-49
2023/04/27 03:36:49;;;;;;;;;;;2.00;99.90;;;;;;5060426;28;19942;-49
2023/04/27 03:39:16;;;;;;;;;;;2.00;99.90;;;;;;5051071;28;20075;-51
2023/04/27 03:41:44;;;;;;;;;;;2.00;99.90;;;;;;5051279;28;20011;-46
2023/04/27 03:44:11;;;;;;;;;;;1.90;99.90;;;;;;5053165;28;19941;-47
2023/04/27 03:46:37;;;;;;;;;;;1.90;99.90;;;;;;5052643;28;19991;-49
2023/04/27 03:49:04;;;;;;;;;;;1.90;99.90;;;;;;5054727;28;19968;-51
2023/04/27 03:51:32;;;;;;;;;;;1.90;99.90;;;;;;5052685;28;19954;-51
2023/04/27 03:53:58;;;;;;;;;;;1.80;99.90;;;;;;5034922;28;19956;-49
2023/04/27 03:56:25;;;;;;;;;;;1.90;99.90;;;;;;5034389;28;19935;-49
2023/04/27 03:58:53;;;;;;;;;;;1.80;99.90;;;;;;5056456;28;19997;-50
2023/04/27 04:01:20;;;;;;;;;;;1.80;99.90;;;;;;5060728;28;19953;-50
2023/04/27 04:03:47;;;;;;;;;;;1.80;99.90;;;;;;5049669;28;19933;-47
2023/04/27 04:06:14;;;;;;;;;;;1.80;99.90;;;;;;5051637;28;19993;-48
2023/04/27 04:08:40;;;;;;;;;;;1.70;99.90;;;;;;5052211;28;20404;-48
2023/04/27 04:11:07;;;;;;;;;;;1.80;99.90;;;;;;5050483;28;20014;-50
2023/04/27 04:13:34;;;;;;;;;;;1.70;99.90;;;;;;5046493;28;19968;-50
2023/04/27 04:16:03;;;;;;;;;;;1.80;99.90;;;;;;5044815;28;19932;-50
2023/04/27 04:18:29;;;;;;;;;;;1.70;99.90;;;;;;5050845;28;19925;-51
2023/04/27 04:20:56;;;;;;;;;;;1.80;99.90;;;;;;5057445;28;20000;-50
2023/04/27 04:23:23;;;;;;;;;;;1.70;99.90;;;;;;5051378;28;20373;-49
2023/04/27 04:25:50;;;;;;;;;;;1.70;99.90;;;;;;5048532;28;19939;-49
2023/04/27 04:28:16;;;;;;;;;;;1.70;99.90;;;;;;5049401;28;20753;-47
2023/04/27 04:30:43;;;;;;;;;;;1.70;99.90;;;;;;5049049;28;19936;-51
2023/04/27 04:33:11;;;;;;;;;;;1.70;99.90;;;;;;5051321;28;19994;-51
2023/04/27 04:35:38;;;;;;;;;;;1.70;99.90;;;;;;5051696;28;19975;-52
2023/04/27 04:38:04;;;;;;;;;;;1.60;99.90;;;;;;5050786;28;19984;-52
2023/04/27 04:40:31;;;;;;;;;;;1.60;99.90;;;;;;5049669;28;20352;-47
2023/04/27 04:42:57;;;;;;;;;;;1.70;99.90;;;;;;5049779;28;19996;-51
2023/04/27 04:45:24;;;;;;;;;;;1.70;99.90;;;;;;5054504;28;20364;-52
2023/04/27 04:47:53;;;;;;;;;;;1.70;99.90;;;;;;5051908;28;19943;-50
2023/04/27 04:50:22;;;;;;;;;;;1.70;99.90;;;;;;5050200;28;20425;-49
2023/04/27 04:52:48;;;;;;;;;;;1.70;99.90;;;;;;5050952;28;19947;-50
2023/04/27 04:55:15;;;;;;;;;;;1.70;99.90;;;;;;5053833;28;19986;-50
2023/04/27 04:57:41;;;;;;;;;;;1.70;99.90;;;;;;5052258;28;19956;-52
2023/04/27 05:00:11;;;;;;;;;;;1.70;99.90;;;;;;5050128;28;19978;-50
2023/04/27 05:02:38;;;;;;;;;;;1.70;99.90;;;;;;5050383;28;19920;-49
2023/04/27 05:05:05;;;;;;;;;;;1.70;99.90;;;;;;5061769;28;19980;-47
2023/04/27 05:07:33;;;;;;;;;;;1.80;99.90;;;;;;5050797;28;20367;-49
2023/04/27 05:10:00;;;;;;;;;;;1.80;99.90;;;;;;5050265;28;20413;-46
2023/04/27 05:12:26;;;;;;;;;;;1.80;99.90;;;;;;5049793;28;19941;-48
2023/04/27 05:14:53;;;;;;;;;;;1.90;99.90;;;;;;5049658;28;19978;-49
2023/04/27 05:17:19;;;;;;;;;;;1.90;99.90;;;;;;5040065;28;19994;-48
2023/04/27 05:19:46;;;;;;;;;;;1.90;99.90;;;;;;5048797;28;20006;-50
2023/04/27 05:22:13;;;;;;;;;;;2.00;99.90;;;;;;5050649;28;20318;-50
2023/04/27 05:24:41;;;;;;;;;;;2.00;99.90;;;;;;5056708;28;19941;-51
2023/04/27 05:27:07;;;;;;;;;;;2.00;99.90;;;;;;5045390;28;20179;-52
2023/04/27 05:29:34;;;;;;;;;;;2.10;99.90;;;;;;5052913;28;20453;-50
2023/04/27 05:32:01;;;;;;;;;;;2.10;99.90;;;;;;5078388;28;20361;-48
2023/04/27 05:34:27;;;;;;;;;;;2.10;99.90;;;;;;5056173;28;20012;-48
2023/04/27 05:36:54;;;;;;;;;;;2.20;99.90;;;;;;5052939;28;20001;-50
2023/04/27 05:39:20;;;;;;;;;;;2.30;99.90;;;;;;5053891;28;20047;-50
2023/04/27 05:41:48;;;;;;;;;;;2.40;99.90;;;;;;5054285;28;20015;-53
2023/04/27 05:44:15;;;;;;;;;;;2.50;99.90;;;;;;5054321;28;19937;-51
2023/04/27 05:46:42;;;;;;;;;;;2.60;99.90;;;;;;5054236;28;19994;-57
2023/04/27 05:49:08;;;;;;;;;;;2.70;99.90;;;;;;5054440;28;19978;-52
2023/04/27 05:51:37;;;;;;;;;;;2.90;99.90;;;;;;5054840;28;20048;-52
2023/04/27 05:54:03;;;;;;;;;;;3.00;99.90;;;;;;5047509;28;19944;-50
2023/04/27 05:56:30;;;;;;;;;;;3.10;99.90;;;;;;5051774;28;20455;-49
2023/04/27 05:58:58;;;;;;;;;;;3.20;99.90;;;;;;5052728;28;19931;-41
2023/04/27 06:01:25;;;;;;;;;;;3.40;99.90;;;;;;5055927;28;20046;-49
2023/04/27 06:03:52;;;;;;;;;;;3.50;99.90;;;;;;5057443;28;19940;-51
2023/04/27 06:06:18;;;;;;;;;;;3.60;99.90;;;;;;5053851;28;19990;-51
2023/04/27 06:08:45;;;;;;;;;;;3.80;99.90;;;;;;5053156;28;20369;-51
2023/04/27 06:11:12;;;;;;;;;;;3.90;99.90;;;;;;5069287;28;19981;-57
2023/04/27 06:13:38;;;;;;;;;;;4.10;99.90;;;;;;5053696;28;19983;-51
2023/04/27 06:16:06;;;;;;;;;;;4.30;99.90;;;;;;5052182;28;20017;-56
2023/04/27 06:18:33;;;;;;;;;;;4.40;99.90;;;;;;5055071;28;19934;-53
2023/04/27 06:21:00;;;;;;;;;;;4.50;99.90;;;;;;5052675;28;20000;-47
2023/04/27 06:23:27;;;;;;;;;;;4.70;99.90;;;;;;5047225;28;19943;-52
2023/04/27 06:25:54;;;;;;;;;;;4.90;99.90;;;;;;5051900;28;19933;-55
2023/04/27 06:28:20;;;;;;;;;;;5.10;99.90;;;;;;5049509;28;20281;-53
2023/04/27 06:30:47;;;;;;;;;;;5.20;99.90;;;;;;5042084;28;20027;-51
2023/04/27 06:33:15;;;;;;;;;;;5.40;99.90;;;;;;5048873;28;19949;-54
2023/04/27 06:35:41;;;;;;;;;;;5.60;99.90;;;;;;5056832;28;19968;-53
2023/04/27 06:38:08;;;;;;;;;;;5.80;99.90;;;;;;5054138;28;19936;-53
2023/04/27 06:40:35;;;;;;;;;;;5.90;99.90;;;;;;5042974;28;20052;-53
2023/04/27 06:43:02;;;;;;;;;;;6.10;99.90;;;;;;5050763;28;19955;-49
2023/04/27 06:45:29;;;;;;;;;;;6.20;99.90;;;;;;5053853;28;19979;-51
2023/04/27 06:47:55;;;;;;;;;;;6.30;99.90;;;;;;5051393;28;19959;-48
2023/04/27 06:50:23;;;;;;;;;;;6.40;99.90;;;;;;5053998;28;20341;-51
2023/04/27 06:52:50;;;;;;;;;;;6.60;99.90;;;;;;5051513;28;20405;-49
2023/04/27 06:55:17;;;;;;;;;;;6.80;99.90;;;;;;5039863;28;19945;-53
2023/04/27 06:57:43;;;;;;;;;;;6.90;99.90;;;;;;5046686;28;19939;-52
2023/04/27 07:00:12;;;;;;;;;;;7.10;99.90;;;;;;5053784;28;20004;-53
2023/04/27 07:02:38;;;;;;;;;;;7.20;99.90;;;;;;5052250;28;19955;-50
2023/04/27 07:05:05;;;;;;;;;;;7.40;99.90;;;;;;5052806;28;20389;-50
2023/04/27 07:07:33;;;;;;;;;;;7.60;99.90;;;;;;5053304;28;19942;-53
2023/04/27 07:10:00;;;;;;;;;;;7.70;99.90;;;;;;5059899;28;19972;-49
2023/04/27 07:12:26;;;;;;;;;;;7.90;99.90;;;;;;5051510;28;19935;-52
2023/04/27 07:14:53;;;;;;;;;;;8.00;99.90;;;;;;5051049;28;20006;-48
2023/04/27 07:17:20;;;;;;;;;;;8.20;99.90;;;;;;5047173;28;20466;-51
2023/04/27 07:19:46;;;;;;;;;;;8.40;99.90;;;;;;5047432;28;19958;-47
2023/04/27 07:22:14;;;;;;;;;;;8.50;99.90;;;;;;5051227;28;20047;-46
2023/04/27 07:24:42;;;;;;;;;;;8.60;99.90;;;;;;5052115;28;19963;-51
2023/04/27 07:27:09;;;;;;;;;;;8.70;99.90;;;;;;5048484;28;19984;-47
2023/04/27 07:29:36;;;;;;;;;;;8.90;99.90;;;;;;5053261;28;19940;-50
2023/04/27 07:32:05;;;;;;;;;;;9.00;99.90;;;;;;5050926;28;19958;-51
2023/04/27 07:34:31;;;;;;;;;;;9.10;99.90;;;;;;5056587;28;20368;-50
2023/04/27 07:36:58;;;;;;;;;;;9.20;99.90;;;;;;5053887;28;19935;-50
2023/04/27 07:39:25;;;;;;;;;;;9.30;99.90;;;;;;5033627;28;19999;-48
2023/04/27 07:41:53;;;;;;;;;;;9.50;99.90;;;;;;5052905;28;20437;-49
2023/04/27 07:44:20;;;;;;;;;;;9.60;99.90;;;;;;5053006;28;19944;-56
2023/04/27 07:46:47;;;;;;;;;;;9.70;99.90;;;;;;5055010;28;19949;-58
2023/04/27 07:49:14;;;;;;;;;;;9.90;99.90;;;;;;5050367;28;19941;-55
2023/04/27 07:51:41;;;;;;;;;;;10.10;99.90;;;;;;5051853;28;19939;-53
2023/04/27 07:54:08;;;;;;;;;;;10.20;99.90;;;;;;5054263;28;19920;-61
2023/04/27 07:56:35;;;;;;;;;;;10.40;99.90;;;;;;5051756;28;19999;-56
2023/04/27 07:59:03;;;;;;;;;;;10.40;99.90;;;;;;5052249;28;19932;-55
2023/04/27 08:01:29;;;;;;;;;;;10.50;99.90;;;;;;5049862;28;19954;-48
2023/04/27 08:03:56;;;;;;;;;;;10.70;99.90;;;;;;5054192;28;20008;-46
2023/04/27 08:06:23;;;;;;;;;;;10.80;99.90;;;;;;5052128;28;20589;-52
2023/04/27 08:08:49;;;;;;;;;;;10.90;99.90;;;;;;5064910;28;19973;-49
2023/04/27 08:11:16;;;;;;;;;;;11.10;99.80;;;;;;5048545;28;19938;-55
2023/04/27 08:13:42;;;;;;;;;;;11.20;99.90;;;;;;5056553;28;20283;-64
2023/04/27 08:16:10;;;;;;;;;;;11.30;99.90;;;;;;5069206;28;20393;-48
2023/04/27 08:18:37;;;;;;;;;;;11.50;99.90;;;;;;5051604;28;19996;-57
2023/04/27 08:21:04;;;;;;;;;;;11.60;97.60;;;;;;5045437;28;19954;-49
2023/04/27 08:23:31;;;;;;;;;;;11.70;97.70;;;;;;5049941;28;19949;-57
2023/04/27 08:25:58;;;;;;;;;;;11.70;98.60;;;;;;5043943;28;19995;-48
2023/04/27 08:28:25;;;;;;;;;;;11.90;99.40;;;;;;5057519;28;19977;-50
2023/04/27 08:30:51;;;;;;;;;;;12.00;97.00;;;;;;5051973;28;19946;-49
2023/04/27 08:33:19;;;;;;;;;;;12.10;92.80;;;;;;5050580;28;19951;-47
2023/04/27 08:35:46;;;;;;;;;;;12.10;95.50;;;;;;5043761;28;19937;-46
2023/04/27 08:38:13;;;;;;;;;;;12.10;90.40;;;;;;5049189;28;19942;-46
2023/04/27 08:40:42;;;;;;;;;;;12.10;93.40;;;;;;5067394;28;19957;-49
2023/04/27 08:43:08;;;;;;;;;;;12.20;94.00;;;;;;5052816;28;20005;-48
2023/04/27 08:45:35;;;;;;;;;;;12.40;93.20;;;;;;5055142;28;19934;-49
2023/04/27 08:48:02;;;;;;;;;;;12.50;93.70;;;;;;5052031;28;20334;-59
2023/04/27 08:50:30;;;;;;;;;;;12.60;94.10;;;;;;5051046;28;19941;-48
2023/04/27 08:52:57;;;;;;;;;;;12.70;94.10;;;;;;5049040;28;19936;-52
2023/04/27 08:55:23;;;;;;;;;;;12.90;91.10;;;;;;5051069;28;19982;-44
2023/04/27 08:57:53;;;;;;;;;;;12.80;91.80;;;;;;5047191;28;20468;-50
2023/04/27 09:00:20;;;;;;;;;;;13.00;94.90;;;;;;5052245;28;19935;-50
2023/04/27 09:02:47;;;;;;;;;;;13.20;94.20;;;;;;5055181;28;19954;-46
2023/04/27 09:05:17;;;;;;;;;;;13.30;93.80;;;;;;5056981;28;20298;-48
2023/04/27 09:07:56;;;;;;;;;;;13.50;91.50;;;;;;5051893;28;19939;-47
2023/04/27 09:10:23;;;;;;;;;;;13.50;87.80;;;;;;5070173;28;20033;-46
2023/04/27 09:12:56;;;;;;;;;;;13.60;92.30;;;;;;5057775;28;19941;-50
2023/04/27 09:15:23;;;;;;;;;;;13.70;93.80;;;;;;5053940;28;20284;-51
2023/04/27 09:17:53;;;;;;;;;;;13.90;93.30;;;;;;5051390;28;20387;-44
2023/04/27 09:20:20;;;;;;;;;;;14.00;90.70;;;;;;5047175;28;19958;-45
2023/04/27 09:22:47;;;;;;;;;;;14.10;91.80;;;;;;5050470;28;19960;-46
2023/04/27 09:25:23;;;;;;;;;;;14.20;91.10;;;;;;5041344;28;20049;-44
2023/04/27 09:27:50;;;;;;;;;;;14.30;91.00;;;;;;5059836;28;19940;-50
2023/04/27 09:30:17;;;;;;;;;;;14.40;92.20;;;;;;5052272;28;19978;-45
2023/04/27 09:32:49;;;;;;;;;;;14.40;89.10;;;;;;5051836;28;19970;-47
2023/04/27 09:35:20;;;;;;;;;;;14.40;83.40;;;;;;5049957;28;19938;-48
2023/04/27 09:37:47;;;;;;;;;;;14.40;85.80;;;;;;5052534;28;19956;-49
2023/04/27 09:40:13;;;;;;;;;;;14.50;89.60;;;;;;5052125;28;19999;-48
2023/04/27 09:42:41;;;;;;;;;;;14.60;87.70;;;;;;5068208;28;20002;-48
2023/04/27 09:45:08;;;;;;;;;;;14.70;89.70;;;;;;5054196;28;19990;-49
2023/04/27 09:47:35;;;;;;;;;;;14.80;84.60;;;;;;5054324;28;19988;-46
2023/04/27 09:50:02;;;;;;;;;;;14.70;79.70;;;;;;5071066;28;19946;-45
2023/04/27 09:52:28;;;;;;;;;;;14.50;81.50;;;;;;5063759;28;20144;-45
2023/04/27 09:54:55;;;;;;;;;;;14.50;83.10;;;;;;5051324;28;19978;-48
2023/04/27 09:57:23;;;;;;;;;;;14.50;82.60;;;;;;5054186;28;19936;-49
2023/04/27 09:59:57;;;;;;;;;;;14.50;77.90;;;;;;5053645;28;19933;-48
2023/04/27 10:02:24;;;;;;;;;;;14.60;81.30;;;;;;5050590;28;19991;-55
2023/04/27 10:05:06;;;;;;;;;;;14.70;82.70;;;;;;5049390;28;19936;-57
2023/04/27 10:07:33;;;;;;;;;;;14.90;83.90;;;;;;5053785;28;19985;-51
2023/04/27 10:10:00;;;;;;;;;;;14.90;76.00;;;;;;5051017;28;19940;-59
2023/04/27 10:12:28;;;;;;;;;;;15.10;83.90;;;;;;5053434;28;19958;-51
2023/04/27 10:14:57;;;;;;;;;;;15.00;78.80;;;;;;5053693;28;20376;-54
2023/04/27 10:17:24;;;;;;;;;;;15.20;80.70;;;;;;5051152;28;20393;-45
2023/04/27 10:19:55;;;;;;;;;;;15.40;83.70;;;;;;5051263;28;19979;-50
2023/04/27 10:22:21;;;;;;;;;;;15.50;83.90;;;;;;5043989;28;20326;-49
2023/04/27 10:24:48;;;;;;;;;;;15.60;75.10;;;;;;5043641;28;19933;-57
2023/04/27 10:27:17;;;;;;;;;;;15.50;70.40;;;;;;5046855;28;20351;-46
2023/04/27 10:29:45;;;;;;;;;;;15.40;75.20;;;;;;5050578;28;19937;-45
2023/04/27 10:32:13;;;;;;;;;;;15.50;78.50;;;;;;5044735;28;20026;-45
2023/04/27 10:34:40;;;;;;;;;;;15.50;73.50;;;;;;5042170;28;19939;-46
2023/04/27 10:37:07;;;;;;;;;;;15.50;78.80;;;;;;5051553;28;20015;-50
2023/04/27 10:39:35;;;;;;;;;;;15.70;82.00;;;;;;5044546;28;19933;-42
2023/04/27 10:42:01;;;;;;;;;;;15.90;80.00;;;;;;5048013;28;19941;-44
2023/04/27 10:44:28;;;;;;;;;;;15.90;81.40;;;;;;5043980;28;19936;-45
2023/04/27 10:46:55;;;;;;;;;;;15.90;80.40;;;;;;5052381;28;19986;-45
2023/04/27 10:49:23;;;;;;;;;;;16.00;81.90;;;;;;5047627;28;20018;-44
2023/04/27 10:51:50;;;;;;;;;;;16.10;82.40;;;;;;5048884;28;19936;-47
2023/04/27 10:54:17;;;;;;;;;;;16.10;76.00;;;;;;5042913;28;20053;-46
2023/04/27 10:56:44;;;;;;;;;;;16.10;77.90;;;;;;5047055;28;19943;-55
2023/04/27 10:59:11;;;;;;;;;;;16.00;81.10;;;;;;5056541;28;19936;-51
2023/04/27 11:01:37;;;;;;;;;;;16.10;79.20;;;;;;5036331;28;19944;-53
2023/04/27 11:04:05;;;;;;;;;;;16.10;82.80;;;;;;5036936;28;20009;-53
2023/04/27 11:06:41;;;;;;;;;;;16.20;81.30;;;;;;5055606;28;19937;-58
2023/04/27 11:09:09;;;;;;;;;;;16.20;78.50;;;;;;5050452;28;20290;-52
2023/04/27 11:11:36;;;;;;;;;;;16.20;80.30;;;;;;5052315;28;19942;-47
2023/04/27 11:14:02;;;;;;;;;;;16.20;82.60;;;;;;5045642;28;19986;-49
2023/04/27 11:16:29;;;;;;;;;;;16.30;81.60;;;;;;5053438;28;20035;-42
2023/04/27 11:18:56;;;;;;;;;;;16.30;80.90;;;;;;5053773;28;19942;-46
2023/04/27 11:21:22;;;;;;;;;;;16.30;83.30;;;;;;5056364;28;19935;-51
2023/04/27 11:23:50;;;;;;;;;;;16.30;83.30;;;;;;5055020;28;20472;-45
2023/04/27 11:26:17;;;;;;;;;;;16.40;74.80;;;;;;5055387;28;20395;-49
2023/04/27 11:28:44;;;;;;;;;;;16.10;74.60;;;;;;5052473;28;20370;-43
2023/04/27 11:31:11;;;;;;;;;;;15.90;77.30;;;;;;5052348;28;20402;-49
2023/04/27 11:33:39;;;;;;;;;;;16.00;78.80;;;;;;5049286;28;20323;-42
2023/04/27 11:36:15;;;;;;;;;;;16.10;77.90;;;;;;5051899;28;19939;-42
2023/04/27 11:38:42;;;;;;;;;;;16.20;79.70;;;;;;5060625;28;19935;-46
2023/04/27 11:41:10;;;;;;;;;;;16.50;80.20;;;;;;5055789;28;19983;-44
2023/04/27 11:43:37;;;;;;;;;;;16.50;75.00;;;;;;5051864;28;19946;-51
2023/04/27 11:46:04;;;;;;;;;;;16.60;77.10;;;;;;5050513;28;20317;-46
2023/04/27 11:48:31;;;;;;;;;;;16.50;76.30;;;;;;5051178;28;20440;-43
2023/04/27 11:50:59;;;;;;;;;;;16.60;79.60;;;;;;5061276;28;20508;-47
2023/04/27 11:53:30;;;;;;;;;;;16.60;70.40;;;;;;5051528;28;20020;-43
2023/04/27 11:55:57;;;;;;;;;;;16.40;73.40;;;;;;5059473;28;19937;-48
2023/04/27 11:58:25;;;;;;;;;;;16.40;76.00;;;;;;5062472;28;19937;-44
2023/04/27 12:00:52;;;;;;;;;;;16.40;75.80;;;;;;5053074;28;19940;-44
2023/04/27 12:03:19;;;;;;;;;;;16.40;73.20;;;;;;5057343;28;19950;-46
2023/04/27 12:05:49;;;;;;;;;;;16.30;78.30;;;;;;5051410;28;19941;-43
2023/04/27 12:08:15;;;;;;;;;;;16.20;77.20;;;;;;5048431;28;20037;-42
2023/04/27 12:10:42;;;;;;;;;;;16.30;75.80;;;;;;5050058;28;20311;-44
2023/04/27 12:13:09;;;;;;;;;;;16.40;77.30;;;;;;5061325;28;20022;-51
2023/04/27 12:15:37;;;;;;;;;;;16.70;73.70;;;;;;5048190;28;19965;-42
2023/04/27 12:18:03;;;;;;;;;;;16.80;75.30;;;;;;5049569;28;19969;-44
2023/04/27 12:20:30;;;;;;;;;;;16.90;74.60;;;;;;5048467;28;20012;-44
2023/04/27 12:22:57;;;;;;;;;;;17.10;73.60;;;;;;5059259;28;20438;-44
2023/04/27 12:25:23;;;;;;;;;;;17.20;65.20;;;;;;5042811;28;19932;-47
2023/04/27 12:27:50;;;;;;;;;;;17.30;69.40;;;;;;5056627;28;20022;-47
2023/04/27 12:30:17;;;;;;;;;;;17.50;68.60;;;;;;5054203;28;19940;-49
2023/04/27 12:32:45;;;;;;;;;;;17.50;64.70;;;;;;5051539;28;19979;-45
2023/04/27 12:35:12;;;;;;;;;;;17.50;68.70;;;;;;5045831;28;20028;-44
2023/04/27 12:37:38;;;;;;;;;;;17.60;69.20;;;;;;5045061;28;20649;-47
2023/04/27 12:40:06;;;;;;;;;;;17.80;72.10;;;;;;5048971;28;19940;-44
2023/04/27 12:42:34;;;;;;;;;;;17.80;69.70;;;;;;5048773;28;19936;-45
2023/04/27 12:45:00;;;;;;;;;;;17.90;69.60;;;;;;5042042;28;20473;-46
2023/04/27 12:47:27;;;;;;;;;;;18.00;71.70;;;;;;5044606;28;20450;-46
2023/04/27 12:49:55;;;;;;;;;;;18.00;64.80;;;;;;5053109;28;19989;-46
2023/04/27 12:52:22;;;;;;;;;;;17.90;67.20;;;;;;5042141;28;19981;-42
2023/04/27 12:54:50;;;;;;;;;;;17.80;71.60;;;;;;5049203;28;19932;-45
2023/04/27 12:57:16;;;;;;;;;;;17.80;69.50;;;;;;5047902;28;19942;-43
2023/04/27 12:59:43;;;;;;;;;;;17.80;70.70;;;;;;5044951;28;20020;-48
2023/04/27 13:02:10;;;;;;;;;;;18.00;70.00;;;;;;5040849;28;20403;-55
2023/04/27 13:04:36;;;;;;;;;;;18.10;64.10;;;;;;5044248;28;19999;-44
2023/04/27 13:07:05;;;;;;;;;;;18.20;67.10;;;;;;5047582;28;19983;-44
2023/04/27 13:09:31;;;;;;;;;;;18.30;66.20;;;;;;5046856;28;19982;-44
2023/04/27 13:11:59;;;;;;;;;;;18.20;67.80;;;;;;5049260;28;19988;-42
2023/04/27 13:14:27;;;;;;;;;;;18.30;71.00;;;;;;5043184;28;19991;-45
2023/04/27 13:16:53;;;;;;;;;;;18.50;72.40;;;;;;5035562;28;19956;-46
2023/04/27 13:19:20;;;;;;;;;;;18.70;70.80;;;;;;5047676;28;20057;-43
2023/04/27 13:21:47;;;;;;;;;;;18.50;68.40;;;;;;5045383;28;19989;-47
2023/04/27 13:24:16;;;;;;;;;;;18.50;68.50;;;;;;5045336;28;20016;-51
2023/04/27 13:26:43;;;;;;;;;;;18.40;69.20;;;;;;5049593;28;19938;-51
2023/04/27 13:29:09;;;;;;;;;;;18.20;62.50;;;;;;5048349;28;20006;-43
2023/04/27 13:31:36;;;;;;;;;;;17.90;63.20;;;;;;5049380;28;19984;-54
2023/04/27 13:34:04;;;;;;;;;;;17.70;69.10;;;;;;5057851;28;19942;-44
2023/04/27 13:36:30;;;;;;;;;;;17.80;69.20;;;;;;5053186;28;19969;-44
2023/04/27 13:38:57;;;;;;;;;;;17.80;68.60;;;;;;5055392;28;19937;-43
2023/04/27 13:41:26;;;;;;;;;;;17.80;70.40;;;;;;5045605;28;19975;-44
2023/04/27 13:43:52;;;;;;;;;;;17.80;71.90;;;;;;5050750;28;20036;-42
2023/04/27 13:46:19;;;;;;;;;;;17.90;72.60;;;;;;5051617;28;20293;-45
2023/04/27 13:48:46;;;;;;;;;;;17.90;67.50;;;;;;5053799;28;19973;-46
2023/04/27 13:51:12;;;;;;;;;;;17.80;72.00;;;;;;5052726;28;20047;-45
2023/04/27 13:53:39;;;;;;;;;;;17.80;71.30;;;;;;5038593;28;19985;-45
2023/04/27 13:56:06;;;;;;;;;;;17.60;69.20;;;;;;5042046;28;20098;-45
2023/04/27 13:58:34;;;;;;;;;;;17.40;70.20;;;;;;5053216;28;19977;-47
2023/04/27 14:01:00;;;;;;;;;;;17.30;68.00;;;;;;5047974;28;19982;-46
2023/04/27 14:03:28;;;;;;;;;;;17.20;68.80;;;;;;5052857;28;19951;-43
2023/04/27 14:05:55;;;;;;;;;;;17.00;69.10;;;;;;5053104;28;19938;-43
2023/04/27 14:08:21;;;;;;;;;;;16.80;66.40;;;;;;5053441;28;19935;-46
2023/04/27 14:10:48;;;;;;;;;;;16.60;67.20;;;;;;5051351;28;19940;-43
2023/04/27 14:13:15;;;;;;;;;;;16.50;71.10;;;;;;5053218;28;20346;-44
2023/04/27 14:15:43;;;;;;;;;;;16.60;72.40;;;;;;5053974;28;19929;-42
2023/04/27 14:18:10;;;;;;;;;;;16.50;70.20;;;;;;5053923;28;19982;-42
2023/04/27 14:20:37;;;;;;;;;;;16.40;68.20;;;;;;5053394;28;19956;-45
2023/04/27 14:23:03;;;;;;;;;;;16.30;70.40;;;;;;5052228;28;19930;-44